Alsen, SD

11:44 PM CDT on October 31, 2014 (GMT -0500)
Northside | Change Station
CLOSE
Current Station
Personal Weather Station
Location: Lennox, SD
Elevation: 1358 ft
Nearby Weather Stations

Elev 1358 ft 43.36 °N, 96.90 °W | Updated 11 minutes ago

Partly Cloudy
Partly Cloudy
29.1 °F
Feels Like 26 °F
N
3.2
Wind Variable Wind from SSE

Today
High -- | Low -- °F
--% Chance of Precip.
Yesterday
High -- | Low -- °F
Precip. -- in
8:00 AM 6:20 PM
Waxing Gibbous, 62% visible
Pressure 30.42 in
Visibility 10.0 miles
Clouds Clear
Windchill 26 °F
Dew Point 19 °F
Humidity 66%
Rainfall 0.00 in
Snow Depth Not available.
UV 0 out of 12
Pollen .10 out of 12
Air Quality Not available.
Flu Activity Not available.
METAR KYKN 010435Z AUTO 14006KT 10SM CLR M02/M08 A3042 RMK AO1

More Conditions Fewer Conditions

Pressure 30.42 in
Visibility 10.0 miles
Clouds Clear
Windchill 26 °F
Dew Point 19 °F
Humidity 66%
Rainfall 0.00 in
Snow Depth Not available.
UV 0 out of 12
Pollen .10 out of 12
Air Quality Not available.
Flu Activity Not available.
METAR KYKN 010435Z AUTO 14006KT 10SM CLR M02/M08 A3042 RMK AO1

More Conditions Fewer Conditions

10-Day Weather Forecast

Almanac

Astronomy

Oct. 31, 2014 Rise Set
Actual Time
Civil Twilight
Nautical Twilight
Astronomical Twilight
Moon
Length of Visible Light
Length of Day
Tomorrow will be .
, % of the Moon is Illuminated

Today's Extremes

State Highs State Lows

Community

WunderPhotos

Upload Photos

1,766,854 photos uploaded!

WunderBlogs® & News

Nearby

Air Quality

  Air Quality AQ Index Pollutant
Not available.

Snow Depth

Station Depth Elevation

Earthquake Activity

City Distance Mag. Time & Date
Minimum magnitude displayed is 2.5.

Coastal Water Temperatures

Place Temperature

Nearby Weather Stations